sensor_id;sensor_type;location;lat;lon;timestamp;temperature;humidity
7445;DHT22;3764;48.126;11.594;2022-11-20T00:01:22;6.50;99.90
7445;DHT22;3764;48.126;11.594;2022-11-20T00:03:50;6.50;99.90
7445;DHT22;3764;48.126;11.594;2022-11-20T00:06:18;6.40;99.90
7445;DHT22;3764;48.126;11.594;2022-11-20T00:08:46;6.50;99.90
7445;DHT22;3764;48.126;11.594;2022-11-20T00:11:15;6.50;99.90
7445;DHT22;3764;48.126;11.594;2022-11-20T00:13:43;6.50;99.90
7445;DHT22;3764;48.126;11.594;2022-11-20T00:16:11;6.50;99.90
7445;DHT22;3764;48.126;11.594;2022-11-20T00:18:40;6.50;99.90
7445;DHT22;3764;48.126;11.594;2022-11-20T00:21:10;6.60;99.90
7445;DHT22;3764;48.126;11.594;2022-11-20T00:23:38;6.60;99.90
7445;DHT22;3764;48.126;11.594;2022-11-20T00:26:07;6.60;99.90
7445;DHT22;3764;48.126;11.594;2022-11-20T00:28:34;6.60;99.90
7445;DHT22;3764;48.126;11.594;2022-11-20T00:31:03;6.60;99.90
7445;DHT22;3764;48.126;11.594;2022-11-20T00:33:31;6.60;99.90
7445;DHT22;3764;48.126;11.594;2022-11-20T00:36:04;6.60;99.90
7445;DHT22;3764;48.126;11.594;2022-11-20T00:38:32;6.60;99.90
7445;DHT22;3764;48.126;11.594;2022-11-20T00:41:00;6.60;99.90
7445;DHT22;3764;48.126;11.594;2022-11-20T00:43:28;6.50;99.90
7445;DHT22;3764;48.126;11.594;2022-11-20T00:45:58;6.60;99.90
7445;DHT22;3764;48.126;11.594;2022-11-20T00:48:25;6.50;99.90
7445;DHT22;3764;48.126;11.594;2022-11-20T00:50:53;6.50;99.90
7445;DHT22;3764;48.126;11.594;2022-11-20T00:53:21;6.50;99.90
7445;DHT22;3764;48.126;11.594;2022-11-20T00:55:55;6.50;99.90
7445;DHT22;3764;48.126;11.594;2022-11-20T00:58:24;6.50;99.90
7445;DHT22;3764;48.126;11.594;2022-11-20T01:00:51;6.50;99.90
7445;DHT22;3764;48.126;11.594;2022-11-20T01:03:18;6.50;99.90
7445;DHT22;3764;48.126;11.594;2022-11-20T01:05:45;6.50;99.90
7445;DHT22;3764;48.126;11.594;2022-11-20T01:08:12;6.50;99.90
7445;DHT22;3764;48.126;11.594;2022-11-20T01:10:42;6.40;99.90
7445;DHT22;3764;48.126;11.594;2022-11-20T01:13:11;6.40;99.90
7445;DHT22;3764;48.126;11.594;2022-11-20T01:16:02;6.40;99.90
7445;DHT22;3764;48.126;11.594;2022-11-20T01:18:29;6.40;99.90
7445;DHT22;3764;48.126;11.594;2022-11-20T01:21:00;6.30;99.90
7445;DHT22;3764;48.126;11.594;2022-11-20T01:23:30;6.30;99.90
7445;DHT22;3764;48.126;11.594;2022-11-20T01:26:01;6.30;99.90
7445;DHT22;3764;48.126;11.594;2022-11-20T01:28:29;6.30;99.90
7445;DHT22;3764;48.126;11.594;2022-11-20T01:30:56;6.30;99.90
7445;DHT22;3764;48.126;11.594;2022-11-20T01:33:24;6.30;99.90
7445;DHT22;3764;48.126;11.594;2022-11-20T01:35:53;6.30;99.90
7445;DHT22;3764;48.126;11.594;2022-11-20T01:38:20;6.30;99.90
7445;DHT22;3764;48.126;11.594;2022-11-20T01:40:54;6.30;99.90
7445;DHT22;3764;48.126;11.594;2022-11-20T01:43:22;6.30;99.90
7445;DHT22;3764;48.126;11.594;2022-11-20T01:46:15;6.30;99.90
7445;DHT22;3764;48.126;11.594;2022-11-20T01:48:47;6.30;99.90
7445;DHT22;3764;48.126;11.594;2022-11-20T01:51:21;6.30;99.90
7445;DHT22;3764;48.126;11.594;2022-11-20T01:53:52;6.30;99.90
7445;DHT22;3764;48.126;11.594;2022-11-20T01:56:19;6.30;99.90
7445;DHT22;3764;48.126;11.594;2022-11-20T01:58:50;6.30;99.90
7445;DHT22;3764;48.126;11.594;2022-11-20T02:01:20;6.30;99.90
7445;DHT22;3764;48.126;11.594;2022-11-20T02:03:48;6.30;99.90
7445;DHT22;3764;48.126;11.594;2022-11-20T02:06:21;6.30;99.90
7445;DHT22;3764;48.126;11.594;2022-11-20T02:08:50;6.40;99.90
7445;DHT22;3764;48.126;11.594;2022-11-20T02:11:17;6.40;99.90
7445;DHT22;3764;48.126;11.594;2022-11-20T02:13:45;6.30;99.90
7445;DHT22;3764;48.126;11.594;2022-11-20T02:16:15;6.30;99.90
7445;DHT22;3764;48.126;11.594;2022-11-20T02:18:43;6.40;99.90
7445;DHT22;3764;48.126;11.594;2022-11-20T02:21:25;6.40;99.90
7445;DHT22;3764;48.126;11.594;2022-11-20T02:24:07;6.30;99.90
7445;DHT22;3764;48.126;11.594;2022-11-20T02:26:41;6.30;99.90
7445;DHT22;3764;48.126;11.594;2022-11-20T02:29:09;6.40;99.90
7445;DHT22;3764;48.126;11.594;2022-11-20T02:31:38;6.40;99.90
7445;DHT22;3764;48.126;11.594;2022-11-20T02:34:05;6.40;99.90
7445;DHT22;3764;48.126;11.594;2022-11-20T02:36:33;6.40;99.90
7445;DHT22;3764;48.126;11.594;2022-11-20T02:39:01;6.40;99.90
7445;DHT22;3764;48.126;11.594;2022-11-20T02:41:35;6.40;99.90
7445;DHT22;3764;48.126;11.594;2022-11-20T02:44:12;6.30;99.90
7445;DHT22;3764;48.126;11.594;2022-11-20T02:46:39;6.30;99.90
7445;DHT22;3764;48.126;11.594;2022-11-20T02:49:18;6.30;99.90
7445;DHT22;3764;48.126;11.594;2022-11-20T02:51:45;6.30;99.90
7445;DHT22;3764;48.126;11.594;2022-11-20T02:54:12;6.40;99.90
7445;DHT22;3764;48.126;11.594;2022-11-20T02:56:40;6.40;99.90
7445;DHT22;3764;48.126;11.594;2022-11-20T02:59:08;6.40;99.90
7445;DHT22;3764;48.126;11.594;2022-11-20T03:01:35;6.40;99.90
7445;DHT22;3764;48.126;11.594;2022-11-20T03:04:02;6.40;99.90
7445;DHT22;3764;48.126;11.594;2022-11-20T03:06:30;6.40;99.90
7445;DHT22;3764;48.126;11.594;2022-11-20T03:08:57;6.40;99.90
7445;DHT22;3764;48.126;11.594;2022-11-20T03:11:24;6.40;99.90
7445;DHT22;3764;48.126;11.594;2022-11-20T03:13:52;6.40;99.90
7445;DHT22;3764;48.126;11.594;2022-11-20T03:16:21;6.40;99.90
7445;DHT22;3764;48.126;11.594;2022-11-20T03:18:48;6.40;99.90
7445;DHT22;3764;48.126;11.594;2022-11-20T03:21:16;6.40;99.90
7445;DHT22;3764;48.126;11.594;2022-11-20T03:23:43;6.40;99.90
7445;DHT22;3764;48.126;11.594;2022-11-20T03:26:12;6.40;99.90
7445;DHT22;3764;48.126;11.594;2022-11-20T03:28:40;6.30;99.90
7445;DHT22;3764;48.126;11.594;2022-11-20T03:31:10;6.30;99.90
7445;DHT22;3764;48.126;11.594;2022-11-20T03:33:38;6.30;99.90
7445;DHT22;3764;48.126;11.594;2022-11-20T03:36:07;6.30;99.90
7445;DHT22;3764;48.126;11.594;2022-11-20T03:38:35;6.30;99.90
7445;DHT22;3764;48.126;11.594;2022-11-20T03:41:03;6.30;99.90
7445;DHT22;3764;48.126;11.594;2022-11-20T03:43:31;6.30;99.90
7445;DHT22;3764;48.126;11.594;2022-11-20T03:45:58;6.40;99.90
7445;DHT22;3764;48.126;11.594;2022-11-20T03:48:26;6.40;99.90
7445;DHT22;3764;48.126;11.594;2022-11-20T03:51:06;6.30;99.90
7445;DHT22;3764;48.126;11.594;2022-11-20T03:53:34;6.30;99.90
7445;DHT22;3764;48.126;11.594;2022-11-20T03:56:01;6.20;99.90
7445;DHT22;3764;48.126;11.594;2022-11-20T03:58:28;6.20;99.90
7445;DHT22;3764;48.126;11.594;2022-11-20T04:00:56;6.20;99.90
7445;DHT22;3764;48.126;11.594;2022-11-20T04:03:23;6.20;99.90
7445;DHT22;3764;48.126;11.594;2022-11-20T04:05:51;6.20;99.90
7445;DHT22;3764;48.126;11.594;2022-11-20T04:08:18;6.20;99.90
7445;DHT22;3764;48.126;11.594;2022-11-20T04:10:45;6.20;99.90
7445;DHT22;3764;48.126;11.594;2022-11-20T04:13:12;6.20;99.90
7445;DHT22;3764;48.126;11.594;2022-11-20T04:15:39;6.30;99.90
7445;DHT22;3764;48.126;11.594;2022-11-20T04:18:06;6.30;99.90
7445;DHT22;3764;48.126;11.594;2022-11-20T04:20:33;6.30;99.90
7445;DHT22;3764;48.126;11.594;2022-11-20T04:23:03;6.30;99.90
7445;DHT22;3764;48.126;11.594;2022-11-20T04:25:30;6.20;99.90
7445;DHT22;3764;48.126;11.594;2022-11-20T04:27:57;6.20;99.90
7445;DHT22;3764;48.126;11.594;2022-11-20T04:30:24;6.30;99.90
7445;DHT22;3764;48.126;11.594;2022-11-20T04:32:51;6.30;99.90
7445;DHT22;3764;48.126;11.594;2022-11-20T04:35:18;6.30;99.90
7445;DHT22;3764;48.126;11.594;2022-11-20T04:37:45;6.30;99.90
7445;DHT22;3764;48.126;11.594;2022-11-20T04:40:14;6.30;99.90
7445;DHT22;3764;48.126;11.594;2022-11-20T04:42:41;6.30;99.90
7445;DHT22;3764;48.126;11.594;2022-11-20T04:45:08;6.30;99.90
7445;DHT22;3764;48.126;11.594;2022-11-20T04:47:35;6.20;99.90
7445;DHT22;3764;48.126;11.594;2022-11-20T04:50:03;6.20;99.90
7445;DHT22;3764;48.126;11.594;2022-11-20T04:52:30;6.20;99.90
7445;DHT22;3764;48.126;11.594;2022-11-20T04:54:57;6.30;99.90
7445;DHT22;3764;48.126;11.594;2022-11-20T04:57:25;6.20;99.90
7445;DHT22;3764;48.126;11.594;2022-11-20T04:59:53;6.30;99.90
7445;DHT22;3764;48.126;11.594;2022-11-20T05:02:20;6.30;99.90
7445;DHT22;3764;48.126;11.594;2022-11-20T05:04:47;6.30;99.90
7445;DHT22;3764;48.126;11.594;2022-11-20T05:07:14;6.30;99.90
7445;DHT22;3764;48.126;11.594;2022-11-20T05:09:41;6.30;99.90
7445;DHT22;3764;48.126;11.594;2022-11-20T05:12:09;6.20;99.90
7445;DHT22;3764;48.126;11.594;2022-11-20T05:14:37;6.20;99.90
7445;DHT22;3764;48.126;11.594;2022-11-20T05:17:04;6.20;99.90
7445;DHT22;3764;48.126;11.594;2022-11-20T05:19:31;6.20;99.90
7445;DHT22;3764;48.126;11.594;2022-11-20T05:21:58;6.20;99.90
7445;DHT22;3764;48.126;11.594;2022-11-20T05:24:25;6.20;99.90
7445;DHT22;3764;48.126;11.594;2022-11-20T05:26:52;6.20;99.90
7445;DHT22;3764;48.126;11.594;2022-11-20T05:29:19;6.20;99.90
7445;DHT22;3764;48.126;11.594;2022-11-20T05:31:48;6.20;99.90
7445;DHT22;3764;48.126;11.594;2022-11-20T05:34:15;6.30;99.90
7445;DHT22;3764;48.126;11.594;2022-11-20T05:36:42;6.30;99.90
7445;DHT22;3764;48.126;11.594;2022-11-20T05:39:09;6.30;99.90
7445;DHT22;3764;48.126;11.594;2022-11-20T05:41:36;6.30;99.90
7445;DHT22;3764;48.126;11.594;2022-11-20T05:44:04;6.20;99.90
7445;DHT22;3764;48.126;11.594;2022-11-20T05:46:31;6.20;99.90
7445;DHT22;3764;48.126;11.594;2022-11-20T05:48:59;6.20;99.90
7445;DHT22;3764;48.126;11.594;2022-11-20T05:51:26;6.10;99.90
7445;DHT22;3764;48.126;11.594;2022-11-20T05:53:55;6.10;99.90
7445;DHT22;3764;48.126;11.594;2022-11-20T05:56:22;6.10;99.90
7445;DHT22;3764;48.126;11.594;2022-11-20T05:58:49;6.10;99.90
7445;DHT22;3764;48.126;11.594;2022-11-20T06:01:19;6.10;99.90
7445;DHT22;3764;48.126;11.594;2022-11-20T06:03:47;6.00;99.90
7445;DHT22;3764;48.126;11.594;2022-11-20T06:06:18;6.00;99.90
7445;DHT22;3764;48.126;11.594;2022-11-20T06:08:45;6.00;99.90
7445;DHT22;3764;48.126;11.594;2022-11-20T06:11:13;6.00;99.90
7445;DHT22;3764;48.126;11.594;2022-11-20T06:13:41;6.00;99.90
7445;DHT22;3764;48.126;11.594;2022-11-20T06:16:09;6.00;99.90
7445;DHT22;3764;48.126;11.594;2022-11-20T06:18:36;5.90;99.90
7445;DHT22;3764;48.126;11.594;2022-11-20T06:21:05;5.90;99.90
7445;DHT22;3764;48.126;11.594;2022-11-20T06:23:35;5.90;99.90
7445;DHT22;3764;48.126;11.594;2022-11-20T06:26:04;5.90;99.90
7445;DHT22;3764;48.126;11.594;2022-11-20T06:28:31;5.90;99.90
7445;DHT22;3764;48.126;11.594;2022-11-20T06:30:59;5.90;99.90
7445;DHT22;3764;48.126;11.594;2022-11-20T06:33:26;5.90;99.90
7445;DHT22;3764;48.126;11.594;2022-11-20T06:35:56;5.80;99.90
7445;DHT22;3764;48.126;11.594;2022-11-20T06:38:24;5.80;99.90
7445;DHT22;3764;48.126;11.594;2022-11-20T06:40:52;5.70;99.90
7445;DHT22;3764;48.126;11.594;2022-11-20T06:43:19;5.70;99.90
7445;DHT22;3764;48.126;11.594;2022-11-20T06:45:52;5.70;99.90
7445;DHT22;3764;48.126;11.594;2022-11-20T06:48:19;5.70;99.90
7445;DHT22;3764;48.126;11.594;2022-11-20T06:50:46;5.80;99.90
7445;DHT22;3764;48.126;11.594;2022-11-20T06:53:14;5.80;99.90
7445;DHT22;3764;48.126;11.594;2022-11-20T06:55:42;5.70;99.90
7445;DHT22;3764;48.126;11.594;2022-11-20T06:58:12;5.70;99.90
7445;DHT22;3764;48.126;11.594;2022-11-20T07:00:39;5.80;99.90
7445;DHT22;3764;48.126;11.594;2022-11-20T07:03:07;5.80;99.90
7445;DHT22;3764;48.126;11.594;2022-11-20T07:05:35;5.80;99.90
7445;DHT22;3764;48.126;11.594;2022-11-20T07:08:02;5.80;99.90
7445;DHT22;3764;48.126;11.594;2022-11-20T07:10:30;5.80;99.90
7445;DHT22;3764;48.126;11.594;2022-11-20T07:12:57;5.80;99.90
7445;DHT22;3764;48.126;11.594;2022-11-20T07:15:26;5.70;99.90
7445;DHT22;3764;48.126;11.594;2022-11-20T07:17:53;5.70;99.90
7445;DHT22;3764;48.126;11.594;2022-11-20T07:20:20;5.70;99.90
7445;DHT22;3764;48.126;11.594;2022-11-20T07:22:53;5.70;99.90
7445;DHT22;3764;48.126;11.594;2022-11-20T07:25:20;5.70;99.90
7445;DHT22;3764;48.126;11.594;2022-11-20T07:27:47;5.70;99.90
7445;DHT22;3764;48.126;11.594;2022-11-20T07:30:14;5.70;99.90
7445;DHT22;3764;48.126;11.594;2022-11-20T07:32:46;5.70;99.90
7445;DHT22;3764;48.126;11.594;2022-11-20T07:35:13;5.70;99.90
7445;DHT22;3764;48.126;11.594;2022-11-20T07:37:40;5.80;99.90
7445;DHT22;3764;48.126;11.594;2022-11-20T07:40:08;5.80;99.90
7445;DHT22;3764;48.126;11.594;2022-11-20T07:42:35;5.80;99.90
7445;DHT22;3764;48.126;11.594;2022-11-20T07:45:03;5.80;99.90
7445;DHT22;3764;48.126;11.594;2022-11-20T07:47:35;5.80;99.90
7445;DHT22;3764;48.126;11.594;2022-11-20T07:50:04;5.80;99.90
7445;DHT22;3764;48.126;11.594;2022-11-20T07:52:31;5.80;99.90
7445;DHT22;3764;48.126;11.594;2022-11-20T07:54:58;5.80;99.90
7445;DHT22;3764;48.126;11.594;2022-11-20T07:57:25;5.80;99.90
7445;DHT22;3764;48.126;11.594;2022-11-20T07:59:52;5.80;99.90
7445;DHT22;3764;48.126;11.594;2022-11-20T08:02:19;5.80;99.90
7445;DHT22;3764;48.126;11.594;2022-11-20T08:04:46;5.80;99.90
7445;DHT22;3764;48.126;11.594;2022-11-20T08:07:15;5.80;99.90
7445;DHT22;3764;48.126;11.594;2022-11-20T08:09:42;5.90;99.90
7445;DHT22;3764;48.126;11.594;2022-11-20T08:12:17;5.90;99.90
7445;DHT22;3764;48.126;11.594;2022-11-20T08:15:02;6.00;99.90
7445;DHT22;3764;48.126;11.594;2022-11-20T08:17:30;6.00;99.90
7445;DHT22;3764;48.126;11.594;2022-11-20T08:19:57;6.00;99.90
7445;DHT22;3764;48.126;11.594;2022-11-20T08:22:25;6.10;99.90
7445;DHT22;3764;48.126;11.594;2022-11-20T08:24:52;6.10;99.90
7445;DHT22;3764;48.126;11.594;2022-11-20T08:27:20;6.10;99.90
7445;DHT22;3764;48.126;11.594;2022-11-20T08:29:47;6.20;99.90
7445;DHT22;3764;48.126;11.594;2022-11-20T08:32:14;6.20;99.90
7445;DHT22;3764;48.126;11.594;2022-11-20T08:34:41;6.20;99.90
7445;DHT22;3764;48.126;11.594;2022-11-20T08:37:08;6.20;99.90
7445;DHT22;3764;48.126;11.594;2022-11-20T08:39:36;6.20;99.90
7445;DHT22;3764;48.126;11.594;2022-11-20T08:42:06;6.20;99.90
7445;DHT22;3764;48.126;11.594;2022-11-20T08:44:34;6.20;99.90
7445;DHT22;3764;48.126;11.594;2022-11-20T08:47:01;6.30;99.90
7445;DHT22;3764;48.126;11.594;2022-11-20T08:49:28;6.30;99.90
7445;DHT22;3764;48.126;11.594;2022-11-20T08:51:55;6.30;99.90
7445;DHT22;3764;48.126;11.594;2022-11-20T08:54:23;6.30;99.90
7445;DHT22;3764;48.126;11.594;2022-11-20T08:56:51;6.30;99.90
7445;DHT22;3764;48.126;11.594;2022-11-20T08:59:19;6.30;99.90
7445;DHT22;3764;48.126;11.594;2022-11-20T09:01:46;6.40;99.90
7445;DHT22;3764;48.126;11.594;2022-11-20T09:04:13;6.40;99.90
7445;DHT22;3764;48.126;11.594;2022-11-20T09:06:41;6.40;99.90
7445;DHT22;3764;48.126;11.594;2022-11-20T09:09:08;6.40;99.90
7445;DHT22;3764;48.126;11.594;2022-11-20T09:11:35;6.50;99.90
7445;DHT22;3764;48.126;11.594;2022-11-20T09:14:03;6.50;99.90
7445;DHT22;3764;48.126;11.594;2022-11-20T09:16:30;6.50;99.90
7445;DHT22;3764;48.126;11.594;2022-11-20T09:18:57;6.60;99.90
7445;DHT22;3764;48.126;11.594;2022-11-20T09:21:24;6.50;99.90
7445;DHT22;3764;48.126;11.594;2022-11-20T09:23:51;6.60;99.90
7445;DHT22;3764;48.126;11.594;2022-11-20T09:26:19;6.60;99.90
7445;DHT22;3764;48.126;11.594;2022-11-20T09:28:46;6.60;99.90
7445;DHT22;3764;48.126;11.594;2022-11-20T09:31:21;6.60;99.90
7445;DHT22;3764;48.126;11.594;2022-11-20T09:33:48;6.70;99.90
7445;DHT22;3764;48.126;11.594;2022-11-20T09:36:16;6.70;99.90
7445;DHT22;3764;48.126;11.594;2022-11-20T09:38:44;6.70;99.90
7445;DHT22;3764;48.126;11.594;2022-11-20T09:41:27;6.70;99.90
7445;DHT22;3764;48.126;11.594;2022-11-20T09:44:03;6.70;99.90
7445;DHT22;3764;48.126;11.594;2022-11-20T09:46:38;6.80;99.90
7445;DHT22;3764;48.126;11.594;2022-11-20T09:49:23;6.80;99.90
7445;DHT22;3764;48.126;11.594;2022-11-20T09:51:57;6.80;99.90
7445;DHT22;3764;48.126;11.594;2022-11-20T09:54:29;6.80;99.90
7445;DHT22;3764;48.126;11.594;2022-11-20T09:57:00;6.90;99.90
7445;DHT22;3764;48.126;11.594;2022-11-20T09:59:36;6.90;99.90
7445;DHT22;3764;48.126;11.594;2022-11-20T10:02:27;7.00;99.90
7445;DHT22;3764;48.126;11.594;2022-11-20T10:04:59;7.00;99.90
7445;DHT22;3764;48.126;11.594;2022-11-20T10:07:32;7.10;99.90
7445;DHT22;3764;48.126;11.594;2022-11-20T10:10:03;7.20;99.90
7445;DHT22;3764;48.126;11.594;2022-11-20T10:12:47;7.30;99.90
7445;DHT22;3764;48.126;11.594;2022-11-20T10:15:29;7.40;99.90
7445;DHT22;3764;48.126;11.594;2022-11-20T10:18:10;7.40;99.90
7445;DHT22;3764;48.126;11.594;2022-11-20T10:20:46;7.50;99.90
7445;DHT22;3764;48.126;11.594;2022-11-20T10:23:34;7.50;99.90
7445;DHT22;3764;48.126;11.594;2022-11-20T10:26:17;7.60;99.90
7445;DHT22;3764;48.126;11.594;2022-11-20T10:29:01;7.60;99.90
7445;DHT22;3764;48.126;11.594;2022-11-20T10:31:36;7.60;99.90
7445;DHT22;3764;48.126;11.594;2022-11-20T10:34:07;7.70;99.90
7445;DHT22;3764;48.126;11.594;2022-11-20T10:36:38;7.70;99.90
7445;DHT22;3764;48.126;11.594;2022-11-20T10:39:14;7.80;99.90
7445;DHT22;3764;48.126;11.594;2022-11-20T10:41:47;7.90;99.90
7445;DHT22;3764;48.126;11.594;2022-11-20T10:44:17;8.00;99.90
7445;DHT22;3764;48.126;11.594;2022-11-20T10:47:13;8.00;99.90
7445;DHT22;3764;48.126;11.594;2022-11-20T10:49:45;7.90;99.90
7445;DHT22;3764;48.126;11.594;2022-11-20T10:52:20;7.90;99.90
7445;DHT22;3764;48.126;11.594;2022-11-20T10:54:59;7.90;99.90
7445;DHT22;3764;48.126;11.594;2022-11-20T10:57:41;7.90;99.90
7445;DHT22;3764;48.126;11.594;2022-11-20T11:00:13;7.90;99.90
7445;DHT22;3764;48.126;11.594;2022-11-20T11:02:45;7.90;99.90
7445;DHT22;3764;48.126;11.594;2022-11-20T11:05:23;7.90;99.90
7445;DHT22;3764;48.126;11.594;2022-11-20T11:07:54;8.00;99.90
7445;DHT22;3764;48.126;11.594;2022-11-20T11:10:25;7.90;99.90
7445;DHT22;3764;48.126;11.594;2022-11-20T11:12:53;8.00;99.90
7445;DHT22;3764;48.126;11.594;2022-11-20T11:15:28;7.90;99.90
7445;DHT22;3764;48.126;11.594;2022-11-20T11:17:56;7.90;99.90
7445;DHT22;3764;48.126;11.594;2022-11-20T11:20:25;7.90;99.90
7445;DHT22;3764;48.126;11.594;2022-11-20T11:22:54;7.90;99.90
7445;DHT22;3764;48.126;11.594;2022-11-20T11:25:25;7.90;99.90
7445;DHT22;3764;48.126;11.594;2022-11-20T11:27:53;8.00;99.90
7445;DHT22;3764;48.126;11.594;2022-11-20T11:30:23;8.00;99.90
7445;DHT22;3764;48.126;11.594;2022-11-20T11:32:50;8.00;99.90
7445;DHT22;3764;48.126;11.594;2022-11-20T11:35:25;8.10;99.90
7445;DHT22;3764;48.126;11.594;2022-11-20T11:37:54;8.10;99.90
7445;DHT22;3764;48.126;11.594;2022-11-20T11:40:22;8.10;99.90
7445;DHT22;3764;48.126;11.594;2022-11-20T11:42:58;8.20;99.90
7445;DHT22;3764;48.126;11.594;2022-11-20T11:45:25;8.20;99.90
7445;DHT22;3764;48.126;11.594;2022-11-20T11:47:53;8.30;99.90
7445;DHT22;3764;48.126;11.594;2022-11-20T11:50:23;8.30;99.90
7445;DHT22;3764;48.126;11.594;2022-11-20T11:53:03;8.40;99.90
7445;DHT22;3764;48.126;11.594;2022-11-20T11:55:36;8.50;99.90
7445;DHT22;3764;48.126;11.594;2022-11-20T11:58:11;8.50;99.90
7445;DHT22;3764;48.126;11.594;2022-11-20T12:00:49;8.70;99.90
7445;DHT22;3764;48.126;11.594;2022-11-20T12:03:20;8.80;99.90
7445;DHT22;3764;48.126;11.594;2022-11-20T12:05:53;8.70;99.90
7445;DHT22;3764;48.126;11.594;2022-11-20T12:08:27;8.70;99.90
7445;DHT22;3764;48.126;11.594;2022-11-20T12:11:00;8.50;99.90
7445;DHT22;3764;48.126;11.594;2022-11-20T12:13:44;8.50;99.90
7445;DHT22;3764;48.126;11.594;2022-11-20T12:16:18;8.30;99.90
7445;DHT22;3764;48.126;11.594;2022-11-20T12:18:47;8.20;99.90
7445;DHT22;3764;48.126;11.594;2022-11-20T12:21:20;8.20;99.90
7445;DHT22;3764;48.126;11.594;2022-11-20T12:29:57;7.80;99.90
7445;DHT22;3764;48.126;11.594;2022-11-20T12:32:54;7.80;99.90
7445;DHT22;3764;48.126;11.594;2022-11-20T12:35:36;7.70;99.90
7445;DHT22;3764;48.126;11.594;2022-11-20T12:38:18;7.70;99.90
7445;DHT22;3764;48.126;11.594;2022-11-20T12:40:55;7.60;99.90
7445;DHT22;3764;48.126;11.594;2022-11-20T12:43:30;7.50;99.90
7445;DHT22;3764;48.126;11.594;2022-11-20T12:46:22;7.50;99.90
7445;DHT22;3764;48.126;11.594;2022-11-20T12:49:14;7.50;99.90
7445;DHT22;3764;48.126;11.594;2022-11-20T12:52:14;7.50;99.90
7445;DHT22;3764;48.126;11.594;2022-11-20T12:55:13;7.50;99.90
7445;DHT22;3764;48.126;11.594;2022-11-20T12:57:47;7.50;99.90
7445;DHT22;3764;48.126;11.594;2022-11-20T13:00:20;7.40;99.90
7445;DHT22;3764;48.126;11.594;2022-11-20T13:03:05;7.40;99.90
7445;DHT22;3764;48.126;11.594;2022-11-20T13:05:40;7.50;99.90
7445;DHT22;3764;48.126;11.594;2022-11-20T13:08:18;7.40;99.90
7445;DHT22;3764;48.126;11.594;2022-11-20T13:10:50;7.30;99.90
7445;DHT22;3764;48.126;11.594;2022-11-20T13:13:25;7.20;99.90
7445;DHT22;3764;48.126;11.594;2022-11-20T13:15:57;7.30;99.90
7445;DHT22;3764;48.126;11.594;2022-11-20T13:18:25;7.30;99.90
7445;DHT22;3764;48.126;11.594;2022-11-20T13:20:53;7.30;99.90
7445;DHT22;3764;48.126;11.594;2022-11-20T13:23:24;7.30;99.90
7445;DHT22;3764;48.126;11.594;2022-11-20T13:26:03;7.20;99.90
7445;DHT22;3764;48.126;11.594;2022-11-20T13:28:30;7.20;99.90
7445;DHT22;3764;48.126;11.594;2022-11-20T13:30:59;7.20;99.90
7445;DHT22;3764;48.126;11.594;2022-11-20T13:33:29;7.20;99.90
7445;DHT22;3764;48.126;11.594;2022-11-20T13:35:59;7.10;99.90
7445;DHT22;3764;48.126;11.594;2022-11-20T13:38:28;7.10;99.90
7445;DHT22;3764;48.126;11.594;2022-11-20T13:40:57;7.10;99.90
7445;DHT22;3764;48.126;11.594;2022-11-20T13:43:34;7.10;99.90
7445;DHT22;3764;48.126;11.594;2022-11-20T13:46:05;7.10;99.90
7445;DHT22;3764;48.126;11.594;2022-11-20T13:48:33;7.10;99.90
7445;DHT22;3764;48.126;11.594;2022-11-20T13:51:15;7.10;99.90
7445;DHT22;3764;48.126;11.594;2022-11-20T13:54:07;7.10;99.90
7445;DHT22;3764;48.126;11.594;2022-11-20T13:56:47;7.10;99.90
7445;DHT22;3764;48.126;11.594;2022-11-20T13:59:28;7.00;99.90
7445;DHT22;3764;48.126;11.594;2022-11-20T14:02:02;7.10;99.90
7445;DHT22;3764;48.126;11.594;2022-11-20T14:04:32;7.10;99.90
7445;DHT22;3764;48.126;11.594;2022-11-20T14:07:00;7.20;99.90
7445;DHT22;3764;48.126;11.594;2022-11-20T14:09:29;7.20;99.90
7445;DHT22;3764;48.126;11.594;2022-11-20T14:11:56;7.20;99.90
7445;DHT22;3764;48.126;11.594;2022-11-20T14:14:25;7.20;99.90
7445;DHT22;3764;48.126;11.594;2022-11-20T14:17:03;7.20;99.90
7445;DHT22;3764;48.126;11.594;2022-11-20T14:19:33;7.20;99.90
7445;DHT22;3764;48.126;11.594;2022-11-20T14:22:15;7.20;99.90
7445;DHT22;3764;48.126;11.594;2022-11-20T14:24:43;7.30;99.90
7445;DHT22;3764;48.126;11.594;2022-11-20T14:27:13;7.30;99.90
7445;DHT22;3764;48.126;11.594;2022-11-20T14:29:41;7.40;99.90
7445;DHT22;3764;48.126;11.594;2022-11-20T14:32:10;7.30;99.90
7445;DHT22;3764;48.126;11.594;2022-11-20T14:34:40;7.40;99.90
7445;DHT22;3764;48.126;11.594;2022-11-20T14:37:12;7.40;99.90
7445;DHT22;3764;48.126;11.594;2022-11-20T14:39:43;7.40;99.90
7445;DHT22;3764;48.126;11.594;2022-11-20T14:42:16;7.40;99.90
7445;DHT22;3764;48.126;11.594;2022-11-20T14:44:44;7.30;99.90
7445;DHT22;3764;48.126;11.594;2022-11-20T14:47:13;7.40;99.90
7445;DHT22;3764;48.126;11.594;2022-11-20T14:49:43;7.40;99.90
7445;DHT22;3764;48.126;11.594;2022-11-20T14:52:13;7.40;99.90
7445;DHT22;3764;48.126;11.594;2022-11-20T14:54:44;7.40;99.90
7445;DHT22;3764;48.126;11.594;2022-11-20T14:57:22;7.40;99.90
7445;DHT22;3764;48.126;11.594;2022-11-20T14:59:49;7.30;99.90
7445;DHT22;3764;48.126;11.594;2022-11-20T15:02:16;7.30;99.90
7445;DHT22;3764;48.126;11.594;2022-11-20T15:04:49;7.20;99.90
7445;DHT22;3764;48.126;11.594;2022-11-20T15:07:24;7.20;99.90
7445;DHT22;3764;48.126;11.594;2022-11-20T15:10:03;7.30;99.90
7445;DHT22;3764;48.126;11.594;2022-11-20T15:12:31;7.40;99.90
7445;DHT22;3764;48.126;11.594;2022-11-20T15:14:58;7.80;99.90
7445;DHT22;3764;48.126;11.594;2022-11-20T15:17:27;8.30;99.90
7445;DHT22;3764;48.126;11.594;2022-11-20T15:19:55;8.30;99.90
7445;DHT22;3764;48.126;11.594;2022-11-20T15:22:23;8.10;99.90
7445;DHT22;3764;48.126;11.594;2022-11-20T15:24:50;7.90;99.90
7445;DHT22;3764;48.126;11.594;2022-11-20T15:27:17;7.80;99.90
7445;DHT22;3764;48.126;11.594;2022-11-20T15:29:44;7.60;99.90
7445;DHT22;3764;48.126;11.594;2022-11-20T15:32:11;7.50;99.90
7445;DHT22;3764;48.126;11.594;2022-11-20T15:34:38;7.40;99.90
7445;DHT22;3764;48.126;11.594;2022-11-20T15:37:06;7.40;99.90
7445;DHT22;3764;48.126;11.594;2022-11-20T15:39:34;7.30;99.90
7445;DHT22;3764;48.126;11.594;2022-11-20T15:42:01;7.20;99.90
7445;DHT22;3764;48.126;11.594;2022-11-20T15:44:28;7.20;99.90
7445;DHT22;3764;48.126;11.594;2022-11-20T15:46:55;7.20;99.90
7445;DHT22;3764;48.126;11.594;2022-11-20T15:49:22;7.10;99.90
7445;DHT22;3764;48.126;11.594;2022-11-20T15:51:49;7.10;99.90
7445;DHT22;3764;48.126;11.594;2022-11-20T15:54:21;7.10;99.90
7445;DHT22;3764;48.126;11.594;2022-11-20T15:56:49;7.10;99.90
7445;DHT22;3764;48.126;11.594;2022-11-20T15:59:18;7.10;99.90
7445;DHT22;3764;48.126;11.594;2022-11-20T16:01:45;7.10;99.90
7445;DHT22;3764;48.126;11.594;2022-11-20T16:04:13;7.10;99.90
7445;DHT22;3764;48.126;11.594;2022-11-20T16:06:40;7.10;99.90
7445;DHT22;3764;48.126;11.594;2022-11-20T16:09:08;7.00;99.90
7445;DHT22;3764;48.126;11.594;2022-11-20T16:11:37;6.90;99.90
7445;DHT22;3764;48.126;11.594;2022-11-20T16:14:04;6.90;99.90
7445;DHT22;3764;48.126;11.594;2022-11-20T16:16:49;6.90;99.90
7445;DHT22;3764;48.126;11.594;2022-11-20T16:19:16;6.90;99.90
7445;DHT22;3764;48.126;11.594;2022-11-20T16:21:44;6.80;99.90
7445;DHT22;3764;48.126;11.594;2022-11-20T16:24:12;6.80;99.90
7445;DHT22;3764;48.126;11.594;2022-11-20T16:26:41;6.80;99.90
7445;DHT22;3764;48.126;11.594;2022-11-20T16:29:09;6.80;99.90